Tompkinsville, KY

10:43 AM CST on November 22, 2014 (GMT -0600)
Glasgow Municipal | Change Station
CLOSE
Current Station
Airport
Location: Glasgow,
Elevation: 715 ft
Nearby Weather Stations

Elev 715 ft 37.03 °N, 85.95 °W | Updated 8 minutes ago

Mostly Cloudy
Mostly Cloudy
58 °F
Feels Like 58 °F
N
8
Wind Variable Wind from South
Gusts 17 mph

Today
High -- | Low -- °F
--% Chance of Precip.
Yesterday
High -- | Low -- °F
Precip. -- in
6:27 AM 4:29 PM
New Moon, 0% visible
Pressure 30.30 in
Visibility 10.0 miles
Clouds Scattered Clouds 3400 ft
Scattered Clouds 6000 ft
Mostly Cloudy 8000 ft
Dew Point 30 °F
Humidity 36%
Rainfall 0.00 in
Snow Depth Not available.
UV 2 out of 12
Pollen .40 out of 12
Air Quality Not available.
Flu Activity Not available.
METAR KGLW 221635Z AUTO 19007G15KT 10SM SCT034 SCT060 BKN080 14/M01 A3030 RMK AO2 T01421009

More Conditions Fewer Conditions

Pressure 30.30 in
Visibility 10.0 miles
Clouds Scattered Clouds 3400 ft
Scattered Clouds 6000 ft
Mostly Cloudy 8000 ft
Dew Point 30 °F
Humidity 36%
Rainfall 0.00 in
Snow Depth Not available.
UV 2 out of 12
Pollen .40 out of 12
Air Quality Not available.
Flu Activity Not available.
METAR KGLW 221635Z AUTO 19007G15KT 10SM SCT034 SCT060 BKN080 14/M01 A3030 RMK AO2 T01421009

More Conditions Fewer Conditions

10-Day Weather Forecast

Almanac

Astronomy

Nov. 22, 2014 Rise Set
Actual Time
Civil Twilight
Nautical Twilight
Astronomical Twilight
Moon
Length of Visible Light
Length of Day
Tomorrow will be .
, % of the Moon is Illuminated

Today's Extremes

State Highs State Lows

Community

WunderPhotos

Upload Photos

1,772,855 photos uploaded!

WunderBlogs® & News

Nearby

Air Quality

  Air Quality AQ Index Pollutant
Not available.

Snow Depth

Station Depth Elevation

Earthquake Activity

City Distance Mag. Time & Date
Minimum magnitude displayed is 2.5.

Coastal Water Temperatures

Place Temperature

Nearby Weather Stations